createdAt,value
2018-02-02T00:00:41.212Z,3.96
2018-02-02T00:01:41.231Z,3.91
2018-02-02T00:02:41.242Z,3.86
2018-02-02T00:03:41.272Z,3.82
2018-02-02T00:04:41.287Z,3.82
2018-02-02T00:05:41.309Z,3.92
2018-02-02T00:06:41.321Z,3.78
2018-02-02T00:07:41.348Z,3.91
2018-02-02T00:08:41.375Z,3.81
2018-02-02T00:09:41.386Z,3.84
2018-02-02T00:10:41.408Z,3.82
2018-02-02T00:11:41.425Z,3.71
2018-02-02T00:12:41.441Z,3.76
2018-02-02T00:13:41.462Z,3.77
2018-02-02T00:14:41.487Z,3.76
2018-02-02T00:15:41.504Z,3.77
2018-02-02T00:16:41.529Z,3.55
2018-02-02T00:17:41.544Z,3.64
2018-02-02T00:18:41.577Z,3.64
2018-02-02T00:19:41.587Z,3.63
2018-02-02T00:20:41.604Z,3.63
2018-02-02T00:21:41.633Z,3.53
2018-02-02T00:22:41.652Z,3.49
2018-02-02T00:23:41.665Z,3.58
2018-02-02T00:24:41.687Z,3.63
2018-02-02T00:25:41.711Z,3.52
2018-02-02T00:26:41.736Z,3.64
2018-02-02T00:27:41.747Z,3.58
2018-02-02T00:28:41.771Z,3.40
2018-02-02T00:29:41.789Z,3.30
2018-02-02T00:30:41.805Z,3.29
2018-02-02T00:31:41.824Z,3.26
2018-02-02T00:32:41.859Z,3.40
2018-02-02T00:33:41.886Z,3.31
2018-02-02T00:34:41.895Z,3.41
2018-02-02T00:35:41.901Z,3.31
2018-02-02T00:36:41.933Z,3.45
2018-02-02T00:37:41.944Z,3.37
2018-02-02T00:38:41.964Z,3.37
2018-02-02T00:39:41.983Z,3.30
2018-02-02T00:40:42.010Z,3.36
2018-02-02T00:41:42.020Z,3.33
2018-02-02T00:42:42.053Z,3.30
2018-02-02T00:43:42.972Z,3.33
2018-02-02T00:44:42.105Z,3.19
2018-02-02T00:45:42.106Z,3.21
2018-02-02T00:46:42.120Z,3.19
2018-02-02T00:47:42.152Z,3.22
2018-02-02T00:48:42.167Z,3.29
2018-02-02T00:49:42.182Z,3.26
2018-02-02T00:50:42.206Z,3.26
2018-02-02T00:51:42.228Z,3.24
2018-02-02T00:52:42.254Z,3.16
2018-02-02T00:53:42.260Z,3.31
2018-02-02T00:54:42.308Z,3.21
2018-02-02T00:55:42.301Z,3.24
2018-02-02T00:56:42.378Z,3.29
2018-02-02T00:57:42.343Z,3.12
2018-02-02T00:58:42.366Z,3.15
2018-02-02T00:59:42.381Z,3.19
2018-02-02T01:00:42.402Z,3.21
2018-02-02T01:01:42.421Z,3.29
2018-02-02T01:02:42.444Z,3.22
2018-02-02T01:03:42.467Z,3.31
2018-02-02T01:04:42.492Z,3.21
2018-02-02T01:05:42.496Z,3.26
2018-02-02T01:06:42.531Z,3.21
2018-02-02T01:07:42.547Z,3.24
2018-02-02T01:08:42.567Z,3.16
2018-02-02T01:09:42.593Z,3.19
2018-02-02T01:10:42.604Z,3.05
2018-02-02T01:11:42.616Z,3.15
2018-02-02T01:12:42.643Z,3.15
2018-02-02T01:13:42.665Z,3.15
2018-02-02T01:14:42.687Z,3.09
2018-02-02T01:15:42.695Z,3.15
2018-02-02T01:16:42.722Z,3.18
2018-02-02T01:17:42.736Z,3.08
2018-02-02T01:18:42.757Z,3.16
2018-02-02T01:19:42.784Z,3.16
2018-02-02T01:20:43.473Z,3.16
2018-02-02T01:21:42.814Z,3.16
2018-02-02T01:22:42.838Z,3.12
2018-02-02T01:23:42.854Z,3.01
2018-02-02T01:24:42.891Z,3.06
2018-02-02T01:25:42.898Z,3.09
2018-02-02T01:26:42.920Z,3.12
2018-02-02T01:27:42.944Z,3.15
2018-02-02T01:28:42.958Z,3.06
2018-02-02T01:29:42.975Z,3.05
2018-02-02T01:30:42.999Z,3.08
2018-02-02T01:31:43.023Z,3.05
2018-02-02T01:32:43.031Z,3.08
2018-02-02T01:33:43.054Z,3.11
2018-02-02T01:34:43.079Z,3.09
2018-02-02T01:35:43.104Z,3.13
2018-02-02T01:36:43.110Z,3.12
2018-02-02T01:37:43.161Z,3.13
2018-02-02T01:38:43.154Z,3.09
2018-02-02T01:39:43.173Z,3.09
2018-02-02T01:40:43.193Z,3.08
2018-02-02T01:41:43.224Z,3.12
2018-02-02T01:42:43.226Z,3.09
2018-02-02T01:43:43.249Z,3.09
2018-02-02T01:44:43.277Z,3.03
2018-02-02T01:45:43.286Z,3.05
2018-02-02T01:46:43.311Z,3.00
2018-02-02T01:47:43.324Z,3.06
2018-02-02T01:48:43.360Z,3.06
2018-02-02T01:49:43.366Z,3.08
2018-02-02T01:50:43.393Z,3.01
2018-02-02T01:51:43.407Z,3.01
2018-02-02T01:52:43.428Z,3.11
2018-02-02T01:53:43.439Z,3.12
2018-02-02T01:54:43.468Z,3.11
2018-02-02T01:55:43.487Z,3.01
2018-02-02T01:56:43.505Z,3.01
2018-02-02T01:57:43.556Z,2.98
2018-02-02T01:58:43.539Z,3.03
2018-02-02T01:59:43.574Z,3.06
2018-02-02T02:00:43.593Z,3.08
2018-02-02T02:01:43.595Z,2.97
2018-02-02T02:02:43.625Z,3.08
2018-02-02T02:03:43.636Z,3.01
2018-02-02T02:04:43.665Z,2.98
2018-02-02T02:05:43.679Z,2.93
2018-02-02T02:06:43.701Z,3.03
2018-02-02T02:07:43.714Z,3.01
2018-02-02T02:08:43.740Z,3.01
2018-02-02T02:09:43.754Z,2.93
2018-02-02T02:10:43.775Z,3.05
2018-02-02T02:11:43.793Z,2.93
2018-02-02T02:12:43.822Z,2.95
2018-02-02T02:13:43.833Z,2.94
2018-02-02T02:14:43.847Z,2.97
2018-02-02T02:15:43.875Z,2.98
2018-02-02T02:16:43.897Z,2.93
2018-02-02T02:17:43.908Z,2.94
2018-02-02T02:18:43.929Z,2.98
2018-02-02T02:19:43.952Z,2.94
2018-02-02T02:20:43.967Z,2.94
2018-02-02T02:21:43.987Z,2.98
2018-02-02T02:22:44.015Z,2.98
2018-02-02T02:23:44.108Z,2.94
2018-02-02T02:24:44.061Z,2.93
2018-02-02T02:25:44.077Z,2.90
2018-02-02T02:26:44.107Z,3.05
2018-02-02T02:27:44.117Z,3.08
2018-02-02T02:28:44.131Z,3.03
2018-02-02T02:29:44.162Z,3.06
2018-02-02T02:30:44.161Z,2.95
2018-02-02T02:31:44.192Z,2.90
2018-02-02T02:32:44.225Z,3.03
2018-02-02T02:33:44.241Z,3.01
2018-02-02T02:34:44.243Z,3.05
2018-02-02T02:35:44.273Z,2.97
2018-02-02T02:36:44.372Z,2.97
2018-02-02T02:37:44.314Z,3.11
2018-02-02T02:38:44.348Z,3.08
2018-02-02T02:39:44.340Z,3.06
2018-02-02T02:40:44.374Z,3.08
2018-02-02T02:41:44.392Z,3.21
2018-02-02T02:42:44.401Z,3.01
2018-02-02T02:43:44.428Z,3.09
2018-02-02T02:44:44.439Z,3.11
2018-02-02T02:45:44.465Z,3.01
2018-02-02T02:46:44.476Z,2.90
2018-02-02T02:47:44.497Z,2.91
2018-02-02T02:48:44.536Z,2.97
2018-02-02T02:49:44.547Z,2.91
2018-02-02T02:50:44.555Z,3.06
2018-02-02T02:51:44.587Z,2.95
2018-02-02T02:52:44.596Z,2.98
2018-02-02T02:53:44.622Z,2.98
2018-02-02T02:54:44.635Z,2.90
2018-02-02T02:55:44.654Z,3.05
2018-02-02T02:56:44.696Z,3.01
2018-02-02T02:57:44.703Z,3.03
2018-02-02T02:58:44.713Z,3.06
2018-02-02T02:59:44.738Z,3.12
2018-02-02T03:00:44.755Z,3.11
2018-02-02T03:01:44.787Z,3.21
2018-02-02T03:02:44.881Z,3.05
2018-02-02T03:03:44.811Z,3.11
2018-02-02T03:04:44.840Z,3.12
2018-02-02T03:05:44.855Z,3.05
2018-02-02T03:06:44.866Z,3.05
2018-02-02T03:07:44.897Z,3.01
2018-02-02T03:08:44.914Z,3.11
2018-02-02T03:09:44.930Z,3.19
2018-02-02T03:10:44.950Z,3.24
2018-02-02T03:11:44.969Z,3.18
2018-02-02T03:12:44.996Z,3.06
2018-02-02T03:13:45.024Z,2.93
2018-02-02T03:14:45.032Z,3.03
2018-02-02T03:15:45.057Z,3.03
2018-02-02T03:16:45.072Z,2.97
2018-02-02T03:17:45.098Z,2.94
2018-02-02T03:18:45.112Z,2.82
2018-02-02T03:19:45.131Z,2.72
2018-02-02T03:20:45.144Z,2.72
2018-02-02T03:21:45.168Z,2.76
2018-02-02T03:22:45.184Z,2.83
2018-02-02T03:23:45.208Z,2.82
2018-02-02T03:24:45.232Z,2.75
2018-02-02T03:25:45.248Z,2.72
2018-02-02T03:26:45.269Z,2.76
2018-02-02T03:27:45.288Z,2.65
2018-02-02T03:28:45.325Z,2.65
2018-02-02T03:29:45.325Z,2.58
2018-02-02T03:30:45.349Z,2.58
2018-02-02T03:31:45.371Z,2.64
2018-02-02T03:32:45.381Z,2.68
2018-02-02T03:33:45.435Z,2.65
2018-02-02T03:34:45.428Z,2.65
2018-02-02T03:35:45.441Z,2.61
2018-02-02T03:36:45.463Z,2.61
2018-02-02T03:37:45.476Z,2.61
2018-02-02T03:38:45.499Z,2.64
2018-02-02T03:39:45.527Z,2.58
2018-02-02T03:40:45.535Z,2.68
2018-02-02T03:41:45.559Z,2.69
2018-02-02T03:42:45.578Z,2.58
2018-02-02T03:43:45.601Z,2.61
2018-02-02T03:44:45.617Z,2.57
2018-02-02T03:45:45.639Z,2.64
2018-02-02T03:46:45.658Z,2.59
2018-02-02T03:47:45.675Z,2.64
2018-02-02T03:48:45.717Z,2.58
2018-02-02T03:49:45.725Z,2.59
2018-02-02T03:50:45.732Z,2.58
2018-02-02T03:51:45.761Z,2.55
2018-02-02T03:52:45.777Z,2.50
2018-02-02T03:53:45.799Z,2.58
2018-02-02T03:54:45.811Z,2.43
2018-02-02T03:55:45.831Z,2.50
2018-02-02T03:56:45.856Z,2.51
2018-02-02T03:57:45.878Z,2.50
2018-02-02T03:58:45.889Z,2.52
2018-02-02T03:59:45.916Z,2.58
2018-02-02T04:00:45.930Z,2.51
2018-02-02T04:01:45.953Z,2.44
2018-02-02T04:02:45.967Z,2.47
2018-02-02T04:03:45.986Z,2.52
2018-02-02T04:04:46.007Z,2.62
2018-02-02T04:05:46.026Z,2.61
2018-02-02T04:06:46.075Z,2.64
2018-02-02T04:07:46.067Z,2.54
2018-02-02T04:08:46.084Z,2.59
2018-02-02T04:09:46.105Z,2.50
2018-02-02T04:10:46.123Z,2.54
2018-02-02T04:11:46.149Z,2.40
2018-02-02T04:12:46.161Z,2.55
2018-02-02T04:13:46.188Z,2.54
2018-02-02T04:14:46.203Z,2.52
2018-02-02T04:15:46.217Z,2.40
2018-02-02T04:16:46.287Z,2.41
2018-02-02T04:17:46.265Z,2.40
2018-02-02T04:18:46.282Z,2.41
2018-02-02T04:19:46.297Z,2.47
2018-02-02T04:20:46.316Z,2.46
2018-02-02T04:21:46.344Z,2.54
2018-02-02T04:22:46.367Z,2.50
2018-02-02T04:23:46.386Z,2.47
2018-02-02T04:24:46.400Z,2.46
2018-02-02T04:25:46.406Z,2.59
2018-02-02T04:26:46.438Z,2.52
2018-02-02T04:27:46.448Z,2.57
2018-02-02T04:28:46.466Z,2.37
2018-02-02T04:29:46.482Z,2.46
2018-02-02T04:30:46.505Z,2.47
2018-02-02T04:31:46.619Z,2.40
2018-02-02T04:32:46.544Z,2.44
2018-02-02T04:33:46.566Z,2.44
2018-02-02T04:34:46.591Z,2.40
2018-02-02T04:35:46.604Z,2.34
2018-02-02T04:36:46.619Z,2.33
2018-02-02T04:37:46.642Z,2.32
2018-02-02T04:38:46.655Z,2.34
2018-02-02T04:39:46.690Z,2.37
2018-02-02T04:40:46.707Z,2.28
2018-02-02T04:41:46.714Z,2.28
2018-02-02T04:42:46.753Z,2.34
2018-02-02T04:43:46.762Z,2.41
2018-02-02T04:44:46.795Z,2.26
2018-02-02T04:45:46.793Z,2.40
2018-02-02T04:46:46.814Z,2.37
2018-02-02T04:47:46.833Z,2.36
2018-02-02T04:48:46.856Z,2.41
2018-02-02T04:49:46.870Z,2.40
2018-02-02T04:50:46.910Z,2.37
2018-02-02T04:51:46.917Z,2.23
2018-02-02T04:52:46.931Z,2.32
2018-02-02T04:53:46.940Z,2.30
2018-02-02T04:54:46.969Z,2.37
2018-02-02T04:55:46.988Z,2.37
2018-02-02T04:56:47.001Z,2.43
2018-02-02T04:57:47.029Z,2.46
2018-02-02T04:58:47.039Z,2.52
2018-02-02T04:59:47.066Z,2.50
2018-02-02T05:00:47.085Z,2.40
2018-02-02T05:01:47.096Z,2.44
2018-02-02T05:02:47.129Z,2.46
2018-02-02T05:03:47.141Z,2.44
2018-02-02T05:04:47.161Z,2.43
2018-02-02T05:05:47.173Z,2.47
2018-02-02T05:06:47.195Z,2.47
2018-02-02T05:07:47.209Z,2.54
2018-02-02T05:08:47.230Z,2.47
2018-02-02T05:09:47.252Z,2.64
2018-02-02T05:10:47.272Z,2.61
2018-02-02T05:11:47.300Z,2.62
2018-02-02T05:12:47.307Z,2.58
2018-02-02T05:13:47.326Z,2.58
2018-02-02T05:14:47.349Z,2.65
2018-02-02T05:15:47.366Z,2.52
2018-02-02T05:16:47.404Z,2.50
2018-02-02T05:17:47.405Z,2.58
2018-02-02T05:18:47.420Z,2.51
2018-02-02T05:19:47.451Z,2.43
2018-02-02T05:20:47.463Z,2.50
2018-02-02T05:21:47.485Z,2.51
2018-02-02T05:22:47.497Z,2.43
2018-02-02T05:23:47.525Z,2.43
2018-02-02T05:24:47.539Z,2.41
2018-02-02T05:25:47.557Z,2.43
2018-02-02T05:26:47.574Z,2.43
2018-02-02T05:27:47.591Z,2.50
2018-02-02T05:28:47.622Z,2.37
2018-02-02T05:29:47.629Z,2.44
2018-02-02T05:30:47.648Z,2.44
2018-02-02T05:31:47.672Z,2.47
2018-02-02T05:32:47.686Z,2.46
2018-02-02T05:33:47.713Z,2.47
2018-02-02T05:34:47.743Z,2.58
2018-02-02T05:35:47.745Z,2.44
2018-02-02T05:36:47.766Z,2.36
2018-02-02T05:37:47.789Z,2.26
2018-02-02T05:38:47.804Z,2.37
2018-02-02T05:39:47.821Z,2.43
2018-02-02T05:40:47.844Z,2.46
2018-02-02T05:41:47.866Z,2.40
2018-02-02T05:42:47.880Z,2.39
2018-02-02T05:43:47.908Z,2.43
2018-02-02T05:44:47.916Z,2.36
2018-02-02T05:45:47.945Z,2.40
2018-02-02T05:46:47.966Z,2.47
2018-02-02T05:47:47.997Z,2.46
2018-02-02T05:48:47.991Z,2.50
2018-02-02T05:49:48.026Z,2.44
2018-02-02T05:50:48.036Z,2.40
2018-02-02T05:51:48.052Z,2.46
2018-02-02T05:52:48.069Z,2.44
2018-02-02T05:53:48.094Z,2.52
2018-02-02T05:54:48.117Z,2.41
2018-02-02T05:55:48.128Z,2.51
2018-02-02T05:56:48.146Z,2.58
2018-02-02T05:57:48.169Z,2.43
2018-02-02T05:58:48.242Z,2.50
2018-02-02T05:59:48.210Z,2.47
2018-02-02T06:00:48.244Z,2.50
2018-02-02T06:01:48.246Z,2.51
2018-02-02T06:02:48.268Z,2.54
2018-02-02T06:03:48.285Z,2.51
2018-02-02T06:04:48.299Z,2.58
2018-02-02T06:05:48.323Z,2.52
2018-02-02T06:06:48.358Z,2.62
2018-02-02T06:07:48.370Z,2.50
2018-02-02T06:08:48.382Z,2.64
2018-02-02T06:09:48.392Z,2.51
2018-02-02T06:10:48.419Z,2.59
2018-02-02T06:11:48.435Z,2.61
2018-02-02T06:12:48.448Z,2.65
2018-02-02T06:13:48.565Z,2.72
2018-02-02T06:14:48.496Z,2.62
2018-02-02T06:15:48.555Z,2.55
2018-02-02T06:16:48.532Z,2.64
2018-02-02T06:17:48.546Z,2.59
2018-02-02T06:18:48.576Z,2.76
2018-02-02T06:19:48.584Z,2.77
2018-02-02T06:20:48.608Z,2.65
2018-02-02T06:21:48.625Z,2.73
2018-02-02T06:22:48.642Z,2.50
2018-02-02T06:23:48.668Z,2.55
2018-02-02T06:24:48.685Z,2.54
2018-02-02T06:25:48.726Z,2.58
2018-02-02T06:26:49.475Z,2.59
2018-02-02T06:27:48.738Z,2.64
2018-02-02T06:28:48.767Z,2.77
2018-02-02T06:29:48.780Z,2.69
2018-02-02T06:30:48.797Z,2.72
2018-02-02T06:31:48.832Z,2.70
2018-02-02T06:32:48.849Z,2.69
2018-02-02T06:33:48.857Z,2.73
2018-02-02T06:34:48.873Z,2.73
2018-02-02T06:35:48.897Z,2.69
2018-02-02T06:36:48.913Z,2.70
2018-02-02T06:37:48.928Z,2.80
2018-02-02T06:38:48.952Z,2.90
2018-02-02T06:39:48.987Z,2.80
2018-02-02T06:40:48.995Z,2.70
2018-02-02T06:41:49.035Z,2.65
2018-02-02T06:42:49.075Z,2.73
2018-02-02T06:43:49.046Z,2.64
2018-02-02T06:44:49.070Z,2.55
2018-02-02T06:45:49.089Z,2.64
2018-02-02T06:46:49.101Z,2.59
2018-02-02T06:47:49.119Z,2.61
2018-02-02T06:48:49.151Z,2.64
2018-02-02T06:49:49.161Z,2.64
2018-02-02T06:50:49.184Z,2.72
2018-02-02T06:51:49.204Z,2.65
2018-02-02T06:52:49.217Z,2.75
2018-02-02T06:53:49.256Z,2.75
2018-02-02T06:54:49.260Z,2.85
2018-02-02T06:55:49.282Z,2.76
2018-02-02T06:56:49.299Z,2.73
2018-02-02T06:57:49.324Z,2.65
2018-02-02T06:58:49.334Z,2.72
2018-02-02T06:59:49.357Z,2.76
2018-02-02T07:00:49.375Z,2.69
2018-02-02T07:01:49.389Z,2.77
2018-02-02T07:02:49.417Z,2.77
2018-02-02T07:03:49.427Z,2.94
2018-02-02T07:04:49.450Z,2.83
2018-02-02T07:05:49.476Z,2.83
2018-02-02T07:06:49.488Z,2.91
2018-02-02T07:07:49.510Z,2.88
2018-02-02T07:08:49.530Z,3.01
2018-02-02T07:09:49.550Z,2.87
2018-02-02T07:10:49.568Z,3.03
2018-02-02T07:11:49.587Z,2.88
2018-02-02T07:12:49.605Z,2.91
2018-02-02T07:13:49.634Z,2.93
2018-02-02T07:14:49.643Z,2.88
2018-02-02T07:15:49.664Z,2.83
2018-02-02T07:16:49.686Z,2.94
2018-02-02T07:17:49.700Z,2.94
2018-02-02T07:18:49.737Z,2.95
2018-02-02T07:19:49.747Z,3.15
2018-02-02T07:20:49.759Z,3.16
2018-02-02T07:21:49.777Z,3.06
2018-02-02T07:22:49.816Z,3.08
2018-02-02T07:23:49.820Z,3.05
2018-02-02T07:24:49.842Z,3.01
2018-02-02T07:25:49.852Z,3.00
2018-02-02T07:26:49.892Z,3.11
2018-02-02T07:27:49.894Z,3.09
2018-02-02T07:28:49.911Z,3.09
2018-02-02T07:29:49.929Z,3.05
2018-02-02T07:30:49.966Z,3.08
2018-02-02T07:31:49.972Z,2.97
2018-02-02T07:32:49.994Z,2.93
2018-02-02T07:33:50.012Z,3.05
2018-02-02T07:34:50.025Z,3.16
2018-02-02T07:35:50.044Z,3.01
2018-02-02T07:36:50.076Z,3.05
2018-02-02T07:37:50.086Z,3.19
2018-02-02T07:38:50.118Z,3.05
2018-02-02T07:39:50.126Z,3.05
2018-02-02T07:40:50.146Z,3.01
2018-02-02T07:41:50.167Z,3.03
2018-02-02T07:42:50.976Z,3.05
2018-02-02T07:43:50.208Z,3.01
2018-02-02T07:44:50.245Z,2.98
2018-02-02T07:45:50.242Z,3.03
2018-02-02T07:46:50.257Z,3.13
2018-02-02T07:47:50.284Z,3.15
2018-02-02T07:48:50.306Z,3.08
2018-02-02T07:49:50.321Z,3.01
2018-02-02T07:50:50.337Z,2.95
2018-02-02T07:51:50.363Z,2.95
2018-02-02T07:52:50.379Z,2.90
2018-02-02T07:53:50.417Z,2.98
2018-02-02T07:54:50.429Z,2.98
2018-02-02T07:55:50.452Z,3.08
2018-02-02T07:56:50.453Z,3.00
2018-02-02T07:57:50.508Z,3.06
2018-02-02T07:58:50.488Z,3.03
2018-02-02T07:59:50.529Z,3.09
2018-02-02T08:00:50.535Z,2.98
2018-02-02T08:01:50.553Z,3.01
2018-02-02T08:02:50.567Z,2.95
2018-02-02T08:03:50.595Z,2.97
2018-02-02T08:04:50.618Z,3.09
2018-02-02T08:05:50.627Z,2.95
2018-02-02T08:06:50.646Z,2.97
2018-02-02T08:07:50.673Z,3.08
2018-02-02T08:08:50.716Z,3.08
2018-02-02T08:09:50.733Z,3.00
2018-02-02T08:10:50.736Z,3.11
2018-02-02T08:11:50.749Z,3.06
2018-02-02T08:12:50.768Z,3.09
2018-02-02T08:13:50.780Z,3.18
2018-02-02T08:14:50.809Z,2.93
2018-02-02T08:15:50.823Z,3.05
2018-02-02T08:16:50.841Z,3.09
2018-02-02T08:17:50.860Z,3.06
2018-02-02T08:18:50.889Z,3.08
2018-02-02T08:19:50.905Z,3.16
2018-02-02T08:20:50.955Z,3.16
2018-02-02T08:21:51.057Z,3.18
2018-02-02T08:22:50.961Z,3.05
2018-02-02T08:23:50.980Z,3.16
2018-02-02T08:24:50.998Z,3.15
2018-02-02T08:25:51.017Z,2.98
2018-02-02T08:26:51.037Z,3.01
2018-02-02T08:27:51.056Z,3.06
2018-02-02T08:28:51.085Z,3.12
2018-02-02T08:29:51.094Z,3.15
2018-02-02T08:30:51.118Z,3.26
2018-02-02T08:31:51.135Z,3.30
2018-02-02T08:32:51.157Z,3.22
2018-02-02T08:33:51.187Z,3.08
2018-02-02T08:34:51.201Z,3.11
2018-02-02T08:35:51.233Z,3.21
2018-02-02T08:36:51.232Z,3.24
2018-02-02T08:37:51.261Z,3.21
2018-02-02T08:38:51.292Z,3.26
2018-02-02T08:39:51.296Z,3.19
2018-02-02T08:40:51.326Z,3.21
2018-02-02T08:41:51.324Z,3.33
2018-02-02T08:42:51.349Z,3.40
2018-02-02T08:43:51.369Z,3.34
2018-02-02T08:44:51.394Z,3.26
2018-02-02T08:45:51.415Z,3.41
2018-02-02T08:46:51.423Z,3.36
2018-02-02T08:47:51.442Z,3.30
2018-02-02T08:48:51.477Z,3.40
2018-02-02T08:49:51.486Z,3.45
2018-02-02T08:50:51.506Z,3.49
2018-02-02T08:51:51.528Z,3.45
2018-02-02T08:52:51.541Z,3.31
2018-02-02T08:53:51.561Z,3.46
2018-02-02T08:54:51.582Z,3.41
2018-02-02T08:55:51.601Z,3.49
2018-02-02T08:56:51.630Z,3.56
2018-02-02T08:57:51.642Z,3.67
2018-02-02T08:58:51.659Z,3.66
2018-02-02T08:59:51.683Z,3.61
2018-02-02T09:00:51.708Z,3.58
2018-02-02T09:01:51.720Z,3.59
2018-02-02T09:02:51.773Z,3.70
2018-02-02T09:03:51.759Z,3.73
2018-02-02T09:04:51.798Z,3.85
2018-02-02T09:05:51.801Z,3.74
2018-02-02T09:06:51.827Z,3.73
2018-02-02T09:07:51.855Z,3.82
2018-02-02T09:08:51.880Z,3.85
2018-02-02T09:09:51.884Z,3.91
2018-02-02T09:10:51.910Z,3.78
2018-02-02T09:11:51.923Z,3.91
2018-02-02T09:12:51.950Z,3.88
2018-02-02T09:13:51.970Z,3.95
2018-02-02T09:14:51.981Z,3.96
2018-02-02T09:15:52.011Z,3.99
2018-02-02T09:16:52.034Z,4.04
2018-02-02T09:17:52.044Z,4.04
2018-02-02T09:18:52.067Z,4.14
2018-02-02T09:19:52.081Z,4.18
2018-02-02T09:20:52.105Z,4.27
2018-02-02T09:21:52.139Z,4.27
2018-02-02T09:22:52.142Z,4.14
2018-02-02T09:23:52.168Z,4.18
2018-02-02T09:24:52.298Z,4.30
2018-02-02T09:25:52.399Z,4.31
2018-02-02T09:26:52.318Z,4.38
2018-02-02T09:27:52.378Z,4.31
2018-02-02T09:28:52.432Z,4.36
2018-02-02T09:29:52.500Z,4.48
2018-02-02T09:30:52.346Z,4.48
2018-02-02T09:31:52.486Z,4.48
2018-02-02T09:32:52.455Z,4.50
2018-02-02T09:33:52.531Z,4.60
2018-02-02T09:34:52.573Z,4.46
2018-02-02T09:35:52.576Z,4.46
2018-02-02T09:36:52.754Z,4.57
2018-02-02T09:37:52.636Z,4.61
2018-02-02T09:38:52.674Z,4.75
2018-02-02T09:39:52.579Z,4.67
2018-02-02T09:40:52.722Z,4.60
2018-02-02T09:41:52.751Z,4.57
2018-02-02T09:42:52.640Z,4.71
2018-02-02T09:43:52.745Z,4.89
2018-02-02T09:44:52.706Z,4.82
2018-02-02T09:45:52.820Z,4.87
2018-02-02T09:46:52.862Z,4.79
2018-02-02T09:47:52.879Z,4.84
2018-02-02T09:48:52.783Z,4.76
2018-02-02T09:49:52.716Z,4.79
2018-02-02T09:50:52.733Z,4.86
2018-02-02T09:51:52.746Z,5.05
2018-02-02T09:52:52.764Z,4.90
2018-02-02T09:53:52.805Z,4.90
2018-02-02T09:54:52.811Z,4.98
2018-02-02T09:55:52.831Z,4.94
2018-02-02T09:56:52.853Z,4.97
2018-02-02T09:57:52.907Z,4.92
2018-02-02T09:58:52.896Z,4.92
2018-02-02T09:59:52.918Z,5.00
2018-02-02T10:00:52.951Z,5.02
2018-02-02T10:01:52.985Z,4.97
2018-02-02T10:02:52.995Z,4.97
2018-02-02T10:03:53.004Z,5.04
2018-02-02T10:04:53.029Z,4.98
2018-02-02T10:05:53.045Z,4.86
2018-02-02T10:06:53.073Z,4.83
2018-02-02T10:07:53.094Z,5.00
2018-02-02T10:08:53.111Z,4.97
2018-02-02T10:09:53.124Z,4.95
2018-02-02T10:10:53.151Z,5.04
2018-02-02T10:11:53.170Z,5.10
2018-02-02T10:12:53.981Z,4.97
2018-02-02T10:13:53.272Z,4.95
2018-02-02T10:14:53.251Z,5.07
2018-02-02T10:15:53.264Z,4.97
2018-02-02T10:16:53.285Z,5.00
2018-02-02T10:17:53.292Z,5.02
2018-02-02T10:18:53.324Z,5.10
2018-02-02T10:19:53.339Z,5.05
2018-02-02T10:20:53.360Z,5.05
2018-02-02T10:21:53.382Z,5.15
2018-02-02T10:22:53.456Z,5.28
2018-02-02T10:23:53.517Z,5.33
2018-02-02T10:24:53.449Z,5.25
2018-02-02T10:25:53.463Z,5.33
2018-02-02T10:26:53.483Z,5.31
2018-02-02T10:27:53.503Z,5.29
2018-02-02T10:28:53.522Z,5.38
2018-02-02T10:29:53.543Z,5.38
2018-02-02T10:30:53.589Z,5.43
2018-02-02T10:31:53.594Z,5.49
2018-02-02T10:32:53.613Z,5.47
2018-02-02T10:33:53.631Z,5.65
2018-02-02T10:34:53.650Z,5.51
2018-02-02T10:35:53.671Z,5.62
2018-02-02T10:36:53.709Z,5.62
2018-02-02T10:37:53.719Z,5.84
2018-02-02T10:38:53.741Z,5.87
2018-02-02T10:39:53.760Z,5.95
2018-02-02T10:40:53.792Z,6.02
2018-02-02T10:41:53.792Z,6.02
2018-02-02T10:42:53.817Z,6.13
2018-02-02T10:43:53.845Z,6.31
2018-02-02T10:44:53.880Z,6.43
2018-02-02T10:45:53.883Z,6.52
2018-02-02T10:46:53.902Z,6.43
2018-02-02T10:47:53.928Z,6.35
2018-02-02T10:48:53.950Z,6.72
2018-02-02T10:49:53.971Z,6.85
2018-02-02T10:50:54.001Z,6.74
2018-02-02T10:51:54.016Z,6.72
2018-02-02T10:52:54.042Z,6.74
2018-02-02T10:53:54.057Z,6.72
2018-02-02T10:54:54.094Z,6.68
2018-02-02T10:55:54.107Z,6.19
2018-02-02T10:56:54.132Z,6.20
2018-02-02T10:57:54.157Z,6.25
2018-02-02T10:58:54.181Z,6.20
2018-02-02T10:59:54.200Z,6.20
2018-02-02T11:00:54.224Z,6.13
2018-02-02T11:01:54.252Z,6.05
2018-02-02T11:02:54.269Z,5.94
2018-02-02T11:03:54.293Z,5.84
2018-02-02T11:04:54.327Z,5.90
2018-02-02T11:05:54.339Z,6.07
2018-02-02T11:06:54.377Z,6.15
2018-02-02T11:07:54.385Z,6.22
2018-02-02T11:08:54.414Z,6.06
2018-02-02T11:09:54.459Z,6.32
2018-02-02T11:10:54.451Z,6.22
2018-02-02T11:11:54.476Z,6.22
2018-02-02T11:12:54.520Z,6.20
2018-02-02T11:13:54.530Z,6.20
2018-02-02T11:14:54.543Z,6.29
2018-02-02T11:15:54.592Z,6.29
2018-02-02T11:16:54.588Z,6.41
2018-02-02T11:17:54.616Z,6.38
2018-02-02T11:18:54.644Z,6.49
2018-02-02T11:19:54.675Z,6.56
2018-02-02T11:20:54.677Z,6.36
2018-02-02T11:21:54.701Z,6.35
2018-02-02T11:22:54.731Z,6.22
2018-02-02T11:23:54.747Z,6.53
2018-02-02T11:24:54.782Z,6.57
2018-02-02T11:25:54.790Z,6.36
2018-02-02T11:26:54.823Z,6.62
2018-02-02T11:27:54.838Z,6.52
2018-02-02T11:28:54.864Z,6.80
2018-02-02T11:29:54.915Z,6.74
2018-02-02T11:30:54.914Z,6.86
2018-02-02T11:31:54.931Z,6.85
2018-02-02T11:32:54.955Z,6.89
2018-02-02T11:33:54.977Z,6.71
2018-02-02T11:34:55.010Z,6.53
2018-02-02T11:35:55.057Z,6.60
2018-02-02T11:36:55.045Z,6.77
2018-02-02T11:37:55.162Z,6.47
2018-02-02T11:38:55.126Z,6.50
2018-02-02T11:39:55.116Z,6.53
2018-02-02T11:40:55.137Z,6.64
2018-02-02T11:41:55.160Z,6.56
2018-02-02T11:42:55.186Z,6.52
2018-02-02T11:43:55.208Z,6.47
2018-02-02T11:44:55.237Z,6.43
2018-02-02T11:45:55.253Z,6.39
2018-02-02T11:46:55.271Z,6.26
2018-02-02T11:47:55.302Z,6.26
2018-02-02T11:48:55.327Z,6.34
2018-02-02T11:49:55.360Z,6.36
2018-02-02T11:50:55.368Z,6.36
2018-02-02T11:51:55.382Z,6.46
2018-02-02T11:52:55.416Z,6.38
2018-02-02T11:53:55.430Z,6.49
2018-02-02T11:54:55.451Z,6.39
2018-02-02T11:55:55.477Z,6.39
2018-02-02T11:56:55.499Z,6.36
2018-02-02T11:57:55.522Z,6.43
2018-02-02T11:58:55.551Z,6.56
2018-02-02T11:59:55.576Z,6.59
2018-02-02T12:00:55.589Z,6.41
2018-02-02T12:01:55.616Z,6.35
2018-02-02T12:02:55.633Z,6.32
2018-02-02T12:03:55.650Z,6.34
2018-02-02T12:04:55.674Z,6.32
2018-02-02T12:05:55.699Z,6.44
2018-02-02T12:06:55.728Z,6.35
2018-02-02T12:07:55.751Z,6.53
2018-02-02T12:08:55.770Z,6.43
2018-02-02T12:09:55.787Z,6.57
2018-02-02T12:10:55.814Z,6.53
2018-02-02T12:11:55.840Z,6.59
2018-02-02T12:12:55.866Z,6.47
2018-02-02T12:13:55.877Z,6.53
2018-02-02T12:14:55.918Z,6.50
2018-02-02T12:15:55.919Z,6.56
2018-02-02T12:16:55.955Z,6.39
2018-02-02T12:17:55.973Z,6.52
2018-02-02T12:18:56.001Z,6.60
2018-02-02T12:19:56.011Z,6.54
2018-02-02T12:20:56.033Z,6.54
2018-02-02T12:21:56.075Z,6.41
2018-02-02T12:22:56.075Z,6.49
2018-02-02T12:23:56.097Z,6.43
2018-02-02T12:24:56.125Z,6.44
2018-02-02T12:25:56.145Z,6.47
2018-02-02T12:26:56.161Z,6.56
2018-02-02T12:27:56.190Z,6.56
2018-02-02T12:28:56.230Z,6.35
2018-02-02T12:29:56.243Z,6.22
2018-02-02T12:30:56.254Z,6.35
2018-02-02T12:31:56.285Z,6.29
2018-02-02T12:32:56.297Z,6.31
2018-02-02T12:33:56.328Z,6.32
2018-02-02T12:34:56.341Z,6.29
2018-02-02T12:35:56.391Z,6.28
2018-02-02T12:36:56.400Z,6.19
2018-02-02T12:37:56.411Z,6.25
2018-02-02T12:38:56.447Z,6.20
2018-02-02T12:39:56.451Z,6.02
2018-02-02T12:40:56.478Z,6.09
2018-02-02T12:41:56.491Z,6.13
2018-02-02T12:42:56.512Z,6.16
2018-02-02T12:43:56.550Z,6.12
2018-02-02T12:44:56.561Z,6.25
2018-02-02T12:45:56.581Z,6.17
2018-02-02T12:46:56.603Z,6.29
2018-02-02T12:47:56.629Z,6.28
2018-02-02T12:48:56.673Z,6.26
2018-02-02T12:49:56.731Z,6.19
2018-02-02T12:50:56.689Z,6.12
2018-02-02T12:51:56.782Z,6.17
2018-02-02T12:52:56.739Z,6.19
2018-02-02T12:53:56.757Z,6.22
2018-02-02T12:54:56.781Z,6.12
2018-02-02T12:55:56.808Z,6.22
2018-02-02T12:56:56.826Z,6.09
2018-02-02T12:57:56.841Z,6.09
2018-02-02T12:58:56.863Z,6.07
2018-02-02T12:59:56.902Z,6.01
2018-02-02T13:00:56.974Z,6.10
2018-02-02T13:01:56.975Z,6.10
2018-02-02T13:02:56.962Z,6.10
2018-02-02T13:03:56.970Z,6.07
2018-02-02T13:04:57.001Z,6.07
2018-02-02T13:05:57.010Z,6.09
2018-02-02T13:06:57.560Z,6.19
2018-02-02T13:07:57.058Z,5.97
2018-02-02T13:08:57.089Z,5.94
2018-02-02T13:09:57.111Z,5.98
2018-02-02T13:10:57.123Z,5.95
2018-02-02T13:11:57.154Z,5.97
2018-02-02T13:12:57.159Z,6.01
2018-02-02T13:13:57.265Z,5.94
2018-02-02T13:14:57.204Z,5.99
2018-02-02T13:15:57.228Z,6.01
2018-02-02T13:16:57.336Z,6.01
2018-02-02T13:17:57.276Z,6.10
2018-02-02T13:18:57.296Z,5.99